createdAt,value
2023-09-18T00:01:56.309Z,7.50
2023-09-18T00:04:24.182Z,6.90
2023-09-18T00:06:51.927Z,6.60
2023-09-18T00:09:20.054Z,6.10
2023-09-18T00:11:49.086Z,6.50
2023-09-18T00:14:17.114Z,6.20
2023-09-18T00:16:58.007Z,6.80
2023-09-18T00:19:26.938Z,6.70
2023-09-18T00:21:55.590Z,6.60
2023-09-18T00:24:23.752Z,7.00
2023-09-18T00:26:53.972Z,6.80
2023-09-18T00:29:22.224Z,6.20
2023-09-18T00:31:51.159Z,6.00
2023-09-18T00:34:19.052Z,6.50
2023-09-18T00:36:46.764Z,6.40
2023-09-18T00:39:15.621Z,5.90
2023-09-18T00:41:43.973Z,6.80
2023-09-18T00:44:11.764Z,6.20
2023-09-18T00:46:39.433Z,6.70
2023-09-18T00:49:07.528Z,6.60
2023-09-18T00:51:35.665Z,6.60
2023-09-18T00:54:03.591Z,6.50
2023-09-18T00:56:31.987Z,6.20
2023-09-18T00:59:01.041Z,6.40
2023-09-18T01:01:28.851Z,6.40
2023-09-18T01:03:57.563Z,6.30
2023-09-18T01:06:28.986Z,6.30
2023-09-18T01:08:56.790Z,5.80
2023-09-18T01:11:37.422Z,6.40
2023-09-18T01:14:15.572Z,6.50
2023-09-18T01:16:58.151Z,6.10
2023-09-18T01:19:37.787Z,6.70
2023-09-18T01:36:09.663Z,6.90
2023-09-18T01:38:38.059Z,6.40
2023-09-18T01:41:05.857Z,6.20
2023-09-18T01:43:33.958Z,6.50
2023-09-18T01:46:01.649Z,6.20
2023-09-18T01:48:30.332Z,6.40
2023-09-18T01:50:58.122Z,5.30
2023-09-18T01:53:27.660Z,7.00
2023-09-18T01:55:55.451Z,5.30
2023-09-18T01:58:23.213Z,6.10
2023-09-18T02:00:51.366Z,6.20
2023-09-18T02:03:41.398Z,6.10
2023-09-18T02:06:09.888Z,5.90
2023-09-18T02:08:38.050Z,6.10
2023-09-18T02:11:05.897Z,5.90
2023-09-18T02:13:33.680Z,6.40
2023-09-18T02:16:01.346Z,6.50
2023-09-18T02:18:30.437Z,6.90
2023-09-18T02:20:58.382Z,6.90
2023-09-18T02:23:26.195Z,6.50
2023-09-18T02:26:00.389Z,6.90
2023-09-18T02:28:28.224Z,6.70
2023-09-18T02:30:55.868Z,6.60
2023-09-18T02:33:23.607Z,5.90
2023-09-18T02:35:51.707Z,6.00
2023-09-18T02:38:19.789Z,7.40
2023-09-18T02:52:23.832Z,6.50
2023-09-18T02:54:52.031Z,7.10
2023-09-18T02:57:20.174Z,6.90
2023-09-18T02:59:48.040Z,8.10
2023-09-18T03:02:16.128Z,7.40
2023-09-18T03:04:43.899Z,7.20
2023-09-18T03:07:14.578Z,7.30
2023-09-18T03:09:42.415Z,7.70
2023-09-18T03:12:10.308Z,6.80
2023-09-18T03:14:38.048Z,8.30
2023-09-18T03:17:06.077Z,8.40
2023-09-18T03:19:33.813Z,7.10
2023-09-18T03:22:02.833Z,7.10
2023-09-18T03:24:31.582Z,7.90
2023-09-18T03:26:59.559Z,8.00
2023-09-18T03:29:28.327Z,7.70
2023-09-18T03:31:59.176Z,7.40
2023-09-18T03:34:28.222Z,8.30
2023-09-18T03:36:56.801Z,7.40
2023-09-18T03:39:24.712Z,6.80
2023-09-18T03:41:52.404Z,6.70
2023-09-18T03:44:20.101Z,7.90
2023-09-18T03:46:48.035Z,7.30
2023-09-18T03:49:15.762Z,7.20
2023-09-18T04:03:01.477Z,8.10
2023-09-18T04:05:30.089Z,8.80
2023-09-18T04:08:00.243Z,8.30
2023-09-18T04:10:28.292Z,9.00
2023-09-18T04:12:55.991Z,8.90
2023-09-18T04:15:24.178Z,8.80
2023-09-18T04:17:51.904Z,8.70
2023-09-18T04:20:20.053Z,9.20
2023-09-18T04:22:51.033Z,8.90
2023-09-18T04:25:20.850Z,10.00
2023-09-18T04:27:51.678Z,9.70
2023-09-18T04:30:20.949Z,8.70
2023-09-18T04:32:49.235Z,9.80
2023-09-18T04:35:17.154Z,10.10
2023-09-18T04:37:44.928Z,9.50
2023-09-18T04:40:13.348Z,9.10
2023-09-18T04:42:41.995Z,9.20
2023-09-18T04:45:10.417Z,9.20
2023-09-18T04:47:38.757Z,9.60
2023-09-18T04:50:10.127Z,8.80
2023-09-18T04:52:44.900Z,9.80
2023-09-18T04:55:15.426Z,10.80
2023-09-18T04:57:43.164Z,10.10
2023-09-18T05:00:18.127Z,11.20
2023-09-18T05:05:15.395Z,10.10
2023-09-18T05:07:43.974Z,11.20
2023-09-18T05:10:12.155Z,11.40
2023-09-18T05:12:41.435Z,11.50
2023-09-18T05:17:43.745Z,11.50
2023-09-18T05:20:17.985Z,11.30
2023-09-18T05:22:46.728Z,12.20
2023-09-18T05:25:18.119Z,11.10
2023-09-18T05:27:46.423Z,10.50
2023-09-18T05:30:16.889Z,9.50
2023-09-18T05:32:46.602Z,10.30
2023-09-18T05:35:15.431Z,9.60
2023-09-18T05:37:43.309Z,11.60
2023-09-18T05:40:13.807Z,11.20
2023-09-18T05:42:44.594Z,9.90
2023-09-18T05:45:14.279Z,9.70
2023-09-18T05:47:43.753Z,8.30
2023-09-18T05:50:17.365Z,10.00
2023-09-18T05:52:46.575Z,8.70
2023-09-18T05:55:15.949Z,10.30
2023-09-18T05:57:43.716Z,9.40
2023-09-18T06:00:16.636Z,8.80
2023-09-18T06:02:45.595Z,8.50
2023-09-18T06:07:41.822Z,9.10
2023-09-18T06:10:10.355Z,9.20
2023-09-18T06:12:40.542Z,9.10
2023-09-18T06:15:12.853Z,8.50
2023-09-18T06:17:44.133Z,8.50
2023-09-18T06:20:17.120Z,10.30
2023-09-18T06:22:45.276Z,8.40
2023-09-18T06:25:14.399Z,9.20
2023-09-18T06:27:42.952Z,9.30
2023-09-18T06:30:11.128Z,9.20
2023-09-18T06:32:39.212Z,9.50
2023-09-18T06:35:07.550Z,10.60
2023-09-18T06:37:35.638Z,10.00
2023-09-18T06:40:05.174Z,9.20
2023-09-18T06:42:34.087Z,9.40
2023-09-18T06:45:02.992Z,8.20
2023-09-18T06:47:31.261Z,9.90
2023-09-18T06:50:01.125Z,9.30
2023-09-18T06:52:29.349Z,9.00
2023-09-18T06:54:59.044Z,9.60
2023-09-18T06:57:27.157Z,8.70
2023-09-18T06:59:55.444Z,9.20
2023-09-18T07:02:23.297Z,9.70
2023-09-18T07:04:51.176Z,8.30
2023-09-18T07:07:25.938Z,9.00
2023-09-18T07:10:04.556Z,8.60
2023-09-18T07:12:34.179Z,8.70
2023-09-18T07:15:05.165Z,8.50
2023-09-18T07:17:34.962Z,9.10
2023-09-18T07:20:10.926Z,8.50
2023-09-18T07:36:47.507Z,8.80
2023-09-18T07:39:14.735Z,7.80
2023-09-18T07:41:41.444Z,7.80
2023-09-18T07:44:07.806Z,7.80
2023-09-18T07:46:34.496Z,7.40
2023-09-18T07:49:01.126Z,7.60
2023-09-18T07:51:28.508Z,6.90
2023-09-18T07:53:55.136Z,7.20
2023-09-18T07:56:21.930Z,7.90
2023-09-18T07:58:48.447Z,6.70
2023-09-18T08:01:16.986Z,6.80
2023-09-18T08:03:43.545Z,7.30
2023-09-18T08:06:12.279Z,7.10
2023-09-18T08:08:40.029Z,6.80
2023-09-18T08:11:09.575Z,6.80
2023-09-18T08:13:38.924Z,6.60
2023-09-18T08:16:07.325Z,7.90
2023-09-18T08:18:34.009Z,6.70
2023-09-18T08:21:00.851Z,6.90
2023-09-18T08:23:27.925Z,7.20
2023-09-18T08:25:57.867Z,7.70
2023-09-18T08:28:24.244Z,7.00
2023-09-18T08:30:50.647Z,7.60
2023-09-18T08:33:17.203Z,6.60
2023-09-18T08:35:45.198Z,6.80
2023-09-18T08:38:12.684Z,6.20
2023-09-18T08:40:41.297Z,6.30
2023-09-18T08:43:08.584Z,6.40
2023-09-18T08:45:48.122Z,6.20
2023-09-18T08:48:15.026Z,6.20
2023-09-18T08:50:43.078Z,5.50
2023-09-18T08:53:09.446Z,5.90
2023-09-18T08:55:36.358Z,5.20
2023-09-18T08:58:02.887Z,5.00
2023-09-18T09:00:29.554Z,5.40
2023-09-18T09:02:56.462Z,5.70
2023-09-18T09:05:23.717Z,5.50
2023-09-18T09:07:50.930Z,5.20
2023-09-18T09:10:17.958Z,5.00
2023-09-18T09:12:54.048Z,5.40
2023-09-18T09:15:23.697Z,5.40
2023-09-18T09:17:51.722Z,4.70
2023-09-18T09:20:19.323Z,4.80
2023-09-18T09:22:46.068Z,4.80
2023-09-18T09:25:33.786Z,5.70
2023-09-18T09:28:03.939Z,4.90
2023-09-18T09:30:30.574Z,4.40
2023-09-18T09:32:58.734Z,4.50
2023-09-18T09:35:28.069Z,4.30
2023-09-18T09:38:01.067Z,5.80
2023-09-18T09:40:29.579Z,4.60
2023-09-18T09:43:04.754Z,4.20
2023-09-18T09:45:38.606Z,4.20
2023-09-18T09:48:06.738Z,4.70
2023-09-18T09:50:48.730Z,4.40
2023-09-18T09:53:15.623Z,4.40
2023-09-18T09:55:42.294Z,4.40
2023-09-18T09:58:11.311Z,4.70
2023-09-18T10:00:41.176Z,5.10
2023-09-18T10:03:09.329Z,4.60
2023-09-18T10:05:38.353Z,5.00
2023-09-18T10:08:11.630Z,4.60
2023-09-18T10:10:47.449Z,4.40
2023-09-18T10:13:19.387Z,4.60
2023-09-18T10:18:27.327Z,4.10
2023-09-18T10:21:03.565Z,4.40
2023-09-18T10:23:59.062Z,4.10
2023-09-18T10:26:29.387Z,4.20
2023-09-18T10:29:00.241Z,4.30
2023-09-18T10:31:28.682Z,4.30
2023-09-18T10:34:00.978Z,4.50
2023-09-18T10:36:34.521Z,4.60
2023-09-18T10:39:02.940Z,3.90
2023-09-18T10:41:30.123Z,4.40
2023-09-18T10:43:58.898Z,4.50
2023-09-18T10:48:54.509Z,4.80
2023-09-18T10:51:22.842Z,4.90
2023-09-18T10:53:52.901Z,5.30
2023-09-18T10:56:22.459Z,4.90
2023-09-18T10:59:05.282Z,4.60
2023-09-18T11:01:32.945Z,4.70
2023-09-18T11:04:03.669Z,5.50
2023-09-18T11:06:30.568Z,5.50
2023-09-18T11:09:04.438Z,5.10
2023-09-18T11:11:33.297Z,5.00
2023-09-18T11:14:01.866Z,4.60
2023-09-18T11:16:28.558Z,5.10
2023-09-18T11:19:01.401Z,5.00
2023-09-18T11:21:29.808Z,5.20
2023-09-18T11:23:59.817Z,4.70
2023-09-18T11:26:36.782Z,5.20
2023-09-18T11:29:09.808Z,5.30
2023-09-18T11:31:54.200Z,5.90
2023-09-18T11:34:22.341Z,4.70
2023-09-18T11:36:50.317Z,5.10
2023-09-18T11:39:38.638Z,5.80
2023-09-18T11:42:17.419Z,5.20
2023-09-18T11:44:46.870Z,5.80
2023-09-18T11:47:21.881Z,5.20
2023-09-18T11:49:54.819Z,5.80
2023-09-18T11:52:23.226Z,5.30
2023-09-18T11:54:50.509Z,5.90
2023-09-18T11:57:18.954Z,6.60
2023-09-18T11:59:46.798Z,5.80
2023-09-18T12:02:28.481Z,6.10
2023-09-18T12:04:55.490Z,6.10
2023-09-18T12:07:21.969Z,6.90
2023-09-18T12:09:48.373Z,6.90
2023-09-18T12:12:16.780Z,6.30
2023-09-18T12:14:43.169Z,6.30
2023-09-18T12:17:09.526Z,6.50
2023-09-18T12:19:35.890Z,6.30
2023-09-18T12:22:02.742Z,6.30
2023-09-18T12:24:29.313Z,6.00
2023-09-18T12:26:59.463Z,6.30
2023-09-18T12:29:25.883Z,6.80
2023-09-18T12:31:53.035Z,6.60
2023-09-18T12:34:23.996Z,6.90
2023-09-18T12:36:51.676Z,6.50
2023-09-18T12:39:21.611Z,6.50
2023-09-18T12:41:48.769Z,6.90
2023-09-18T12:44:17.043Z,7.00
2023-09-18T12:46:44.839Z,6.30
2023-09-18T12:49:21.759Z,5.80
2023-09-18T12:52:09.019Z,6.20
2023-09-18T12:57:07.425Z,6.40
2023-09-18T12:59:36.196Z,6.10
2023-09-18T13:02:04.846Z,6.40
2023-09-18T13:04:41.193Z,6.00
2023-09-18T13:07:15.468Z,6.60
2023-09-18T13:09:41.845Z,6.30
2023-09-18T13:12:09.385Z,6.40
2023-09-18T13:14:58.741Z,6.40
2023-09-18T13:17:25.434Z,6.60
2023-09-18T13:19:51.786Z,6.10
2023-09-18T13:22:27.456Z,6.00
2023-09-18T13:24:57.644Z,6.10
2023-09-18T13:27:24.638Z,6.70
2023-09-18T13:29:54.513Z,5.80
2023-09-18T13:32:21.691Z,6.50
2023-09-18T13:34:48.731Z,5.50
2023-09-18T13:37:17.726Z,5.90
2023-09-18T13:39:44.078Z,6.00
2023-09-18T13:42:10.387Z,6.40
2023-09-18T13:44:37.464Z,5.30
2023-09-18T13:47:04.437Z,5.80
2023-09-18T13:49:30.894Z,6.00
2023-09-18T13:51:57.262Z,5.50
2023-09-18T13:54:23.608Z,6.40
2023-09-18T13:56:49.944Z,5.80
2023-09-18T13:59:16.310Z,6.30
2023-09-18T14:01:42.615Z,5.80
2023-09-18T14:04:09.318Z,6.00
2023-09-18T14:06:35.911Z,6.60
2023-09-18T14:09:06.033Z,5.80
2023-09-18T14:11:32.339Z,6.30
2023-09-18T14:13:58.615Z,6.30
2023-09-18T14:16:25.597Z,6.50
2023-09-18T14:18:54.444Z,7.10
2023-09-18T14:23:47.656Z,6.40
2023-09-18T14:28:47.448Z,6.70
2023-09-18T14:31:13.815Z,6.40
2023-09-18T14:33:41.176Z,6.20
2023-09-18T14:36:07.672Z,5.90
2023-09-18T14:38:33.981Z,6.70
2023-09-18T14:41:03.293Z,6.70
2023-09-18T14:43:30.249Z,6.40
2023-09-18T14:45:57.505Z,6.90
2023-09-18T14:48:24.511Z,6.70
2023-09-18T14:50:55.020Z,6.40
2023-09-18T14:53:21.731Z,6.90
2023-09-18T14:55:49.343Z,5.90
2023-09-18T14:58:15.675Z,6.50
2023-09-18T15:00:42.590Z,5.90
2023-09-18T15:03:09.089Z,5.80
2023-09-18T15:05:35.908Z,5.70
2023-09-18T15:08:02.503Z,5.70
2023-09-18T15:10:29.102Z,6.00
2023-09-18T15:12:55.564Z,5.70
2023-09-18T15:15:22.169Z,4.90
2023-09-18T15:17:49.308Z,5.30
2023-09-18T15:20:17.806Z,5.40
2023-09-18T15:22:44.647Z,5.40
2023-09-18T15:25:11.279Z,5.20
2023-09-18T15:27:37.877Z,5.80
2023-09-18T15:30:07.366Z,6.30
2023-09-18T15:32:54.073Z,5.30
2023-09-18T15:35:24.740Z,5.50
2023-09-18T15:37:52.020Z,5.80
2023-09-18T15:40:21.099Z,5.90
2023-09-18T15:42:49.973Z,6.30
2023-09-18T15:47:42.691Z,7.00
2023-09-18T15:50:10.558Z,6.00
2023-09-18T15:52:37.706Z,5.90
2023-09-18T15:55:05.947Z,6.90
2023-09-18T15:57:36.932Z,6.80
2023-09-18T16:00:05.252Z,6.80
2023-09-18T16:02:39.132Z,7.10
2023-09-18T16:05:06.400Z,7.00
2023-09-18T16:07:39.939Z,6.90
2023-09-18T16:10:07.820Z,8.00
2023-09-18T16:12:35.294Z,7.50
2023-09-18T16:15:03.406Z,6.60
2023-09-18T16:17:29.937Z,7.70
2023-09-18T16:19:58.336Z,7.10
2023-09-18T16:22:28.260Z,7.30
2023-09-18T16:24:54.745Z,7.30
2023-09-18T16:27:21.066Z,7.50
2023-09-18T16:29:47.462Z,8.20
2023-09-18T16:32:13.764Z,7.20
2023-09-18T16:34:40.322Z,7.90
2023-09-18T16:37:06.636Z,7.20
2023-09-18T16:39:32.924Z,7.20
2023-09-18T16:41:59.384Z,7.50
2023-09-18T16:44:25.840Z,8.40
2023-09-18T16:46:52.408Z,7.50
2023-09-18T16:49:22.705Z,7.70
2023-09-18T16:51:50.393Z,8.00
2023-09-18T16:54:19.097Z,7.90
2023-09-18T16:56:45.933Z,8.70
2023-09-18T16:59:13.048Z,8.20
2023-09-18T17:01:39.701Z,7.60
2023-09-18T17:04:07.101Z,7.70
2023-09-18T17:06:35.427Z,7.80
2023-09-18T17:09:08.713Z,8.60
2023-09-18T17:11:36.080Z,8.70
2023-09-18T17:14:02.489Z,9.30
2023-09-18T17:16:31.434Z,8.30
2023-09-18T17:18:57.925Z,8.10
2023-09-18T17:21:25.279Z,8.40
2023-09-18T17:23:52.092Z,8.60
2023-09-18T17:26:18.538Z,8.80
2023-09-18T17:28:45.499Z,8.60
2023-09-18T17:31:12.163Z,8.70
2023-09-18T17:33:39.197Z,8.20
2023-09-18T17:36:08.591Z,8.70
2023-09-18T17:38:36.271Z,10.00
2023-09-18T17:41:04.521Z,9.60
2023-09-18T17:43:32.427Z,9.40
2023-09-18T17:45:58.862Z,9.20
2023-09-18T17:48:25.395Z,9.30
2023-09-18T17:50:51.897Z,9.40
2023-09-18T17:53:18.449Z,9.40
2023-09-18T17:55:45.057Z,9.80
2023-09-18T17:58:11.541Z,9.60
2023-09-18T18:00:38.629Z,9.30
2023-09-18T18:03:05.419Z,9.00
2023-09-18T18:05:32.216Z,8.90
2023-09-18T18:07:59.268Z,9.10
2023-09-18T18:10:25.644Z,8.40
2023-09-18T18:12:52.044Z,8.50
2023-09-18T18:15:18.345Z,8.60
2023-09-18T18:17:45.069Z,8.40
2023-09-18T18:20:13.136Z,8.00
2023-09-18T18:22:40.516Z,8.40
2023-09-18T18:25:08.624Z,9.10
2023-09-18T18:27:35.141Z,8.70
2023-09-18T18:30:02.120Z,8.20
2023-09-18T18:32:28.707Z,7.90
2023-09-18T18:34:56.176Z,8.30
2023-09-18T18:37:22.971Z,9.10
2023-09-18T18:39:49.503Z,9.20
2023-09-18T18:42:15.792Z,8.40
2023-09-18T18:44:42.203Z,8.80
2023-09-18T18:47:08.640Z,8.30
2023-09-18T18:49:35.019Z,8.30
2023-09-18T18:52:03.431Z,8.60
2023-09-18T18:54:32.250Z,8.00
2023-09-18T18:56:58.690Z,8.30
2023-09-18T18:59:26.236Z,8.10
2023-09-18T19:01:55.903Z,7.80
2023-09-18T19:04:22.842Z,8.20
2023-09-18T19:06:49.202Z,7.40
2023-09-18T19:09:17.929Z,7.90
2023-09-18T19:11:44.269Z,7.20
2023-09-18T19:14:10.653Z,7.20
2023-09-18T19:16:37.069Z,8.20
2023-09-18T19:19:04.204Z,7.60
2023-09-18T19:21:30.797Z,7.10
2023-09-18T19:23:57.103Z,7.10
2023-09-18T19:26:23.490Z,7.50
2023-09-18T19:28:50.038Z,8.60
2023-09-18T19:31:22.419Z,8.60
2023-09-18T19:33:49.030Z,7.50
2023-09-18T19:36:17.648Z,8.20
2023-09-18T19:38:44.689Z,7.30
2023-09-18T19:41:11.859Z,7.40
2023-09-18T19:43:38.370Z,7.50
2023-09-18T19:46:04.989Z,8.00
2023-09-18T19:48:31.751Z,8.10
2023-09-18T19:50:59.986Z,7.10
2023-09-18T19:53:27.249Z,7.50
2023-09-18T19:55:53.918Z,7.80
2023-09-18T19:58:20.226Z,8.00
2023-09-18T20:00:46.928Z,8.70
2023-09-18T20:03:13.308Z,7.40
2023-09-18T20:05:39.892Z,7.80
2023-09-18T20:08:06.549Z,7.80
2023-09-18T20:10:33.478Z,8.50
2023-09-18T20:13:01.162Z,7.90
2023-09-18T20:15:30.926Z,8.10
2023-09-18T20:17:57.476Z,8.20
2023-09-18T20:20:26.552Z,7.80
2023-09-18T20:22:52.856Z,8.20
2023-09-18T20:25:19.341Z,8.30
2023-09-18T20:27:45.752Z,8.10
2023-09-18T20:30:16.378Z,7.10
2023-09-18T20:32:44.416Z,8.70
2023-09-18T20:35:12.333Z,9.30
2023-09-18T20:37:38.640Z,7.50
2023-09-18T20:40:06.913Z,8.60
2023-09-18T20:42:34.126Z,8.80
2023-09-18T20:45:00.787Z,8.30
2023-09-18T20:47:28.583Z,7.90
2023-09-18T20:49:56.366Z,8.30
2023-09-18T20:52:23.965Z,7.40
2023-09-18T20:54:51.690Z,7.20
2023-09-18T20:57:18.224Z,8.50
2023-09-18T20:59:45.597Z,8.20
2023-09-18T21:02:13.775Z,8.40
2023-09-18T21:04:40.607Z,7.90
2023-09-18T21:07:07.226Z,7.70
2023-09-18T21:09:33.921Z,7.80
2023-09-18T21:12:03.282Z,8.30
2023-09-18T21:14:30.966Z,8.10
2023-09-18T21:16:57.400Z,8.20
2023-09-18T21:19:23.783Z,8.00
2023-09-18T21:21:51.451Z,8.00
2023-09-18T21:24:18.112Z,8.20
2023-09-18T21:26:45.433Z,8.40
2023-09-18T21:29:11.844Z,8.60
2023-09-18T21:31:38.994Z,8.80
2023-09-18T21:34:05.438Z,8.20
2023-09-18T21:36:31.881Z,8.60
2023-09-18T21:38:58.238Z,7.90
2023-09-18T21:41:24.562Z,7.70
2023-09-18T21:43:50.878Z,7.80
2023-09-18T21:46:17.630Z,9.00
2023-09-18T21:48:44.680Z,8.10
2023-09-18T21:51:16.243Z,9.00
2023-09-18T21:53:43.444Z,8.50
2023-09-18T21:56:10.084Z,8.10
2023-09-18T21:58:36.567Z,7.80
2023-09-18T22:01:04.334Z,9.00
2023-09-18T22:03:36.607Z,8.40
2023-09-18T22:06:05.068Z,8.70
2023-09-18T22:08:32.309Z,8.00
2023-09-18T22:10:58.706Z,8.90
2023-09-18T22:13:25.088Z,8.40
2023-09-18T22:15:51.444Z,8.50
2023-09-18T22:18:17.985Z,7.60
2023-09-18T22:20:44.496Z,8.10
2023-09-18T22:23:13.700Z,9.10
2023-09-18T22:25:41.152Z,8.70
2023-09-18T22:28:08.207Z,8.90
2023-09-18T22:30:34.842Z,8.40
2023-09-18T22:33:03.171Z,8.50
2023-09-18T22:35:32.739Z,7.80
2023-09-18T22:38:20.897Z,8.60
2023-09-18T22:40:49.466Z,8.70
2023-09-18T22:43:53.697Z,9.60
2023-09-18T22:46:58.774Z,8.30
2023-09-18T22:50:05.272Z,8.50
2023-09-18T22:52:45.137Z,8.90
2023-09-18T22:55:18.083Z,9.10
2023-09-18T22:57:47.983Z,10.50
2023-09-18T23:00:17.391Z,9.90
2023-09-18T23:02:45.212Z,9.70
2023-09-18T23:05:14.811Z,8.80
2023-09-18T23:07:43.897Z,9.10
2023-09-18T23:10:12.813Z,9.70
2023-09-18T23:12:39.115Z,9.90
2023-09-18T23:15:11.720Z,9.60
2023-09-18T23:17:42.212Z,9.60
2023-09-18T23:20:12.160Z,9.80
2023-09-18T23:22:41.003Z,10.20
2023-09-18T23:25:12.473Z,8.70
2023-09-18T23:27:44.535Z,9.40
2023-09-18T23:30:17.743Z,9.40
2023-09-18T23:32:55.912Z,9.40
2023-09-18T23:35:22.244Z,9.20
2023-09-18T23:37:59.162Z,9.30
2023-09-18T23:40:32.029Z,10.00
2023-09-18T23:43:04.335Z,9.70
2023-09-18T23:45:38.387Z,10.00
2023-09-18T23:48:19.950Z,9.80
2023-09-18T23:50:51.616Z,9.70
2023-09-18T23:53:20.721Z,9.80
2023-09-18T23:55:49.896Z,10.70
